createdAt,value
2017-12-01T00:02:10.179Z,1.54
2017-12-01T00:04:37.695Z,1.57
2017-12-01T00:07:05.179Z,1.59
2017-12-01T00:09:32.681Z,1.58
2017-12-01T00:12:00.237Z,1.69
2017-12-01T00:14:27.791Z,1.79
2017-12-01T00:16:55.376Z,1.86
2017-12-01T00:19:22.895Z,1.85
2017-12-01T00:21:50.405Z,1.84
2017-12-01T00:24:17.939Z,1.82
2017-12-01T00:26:45.513Z,1.82
2017-12-01T00:29:13.009Z,1.86
2017-12-01T00:31:40.521Z,1.87
2017-12-01T00:34:08.104Z,1.86
2017-12-01T00:36:35.590Z,1.81
2017-12-01T00:39:03.116Z,1.80
2017-12-01T00:41:30.608Z,1.74
2017-12-01T00:43:58.092Z,1.72
2017-12-01T00:46:25.628Z,1.73
2017-12-01T00:48:53.124Z,1.78
2017-12-01T00:51:20.617Z,1.81
2017-12-01T00:53:48.166Z,1.80
2017-12-01T00:56:15.667Z,1.83
2017-12-01T00:58:43.160Z,1.84
2017-12-01T01:01:10.679Z,1.89
2017-12-01T01:03:38.170Z,1.94
2017-12-01T01:06:05.684Z,1.93
2017-12-01T01:08:33.175Z,1.96
2017-12-01T01:11:00.709Z,1.97
2017-12-01T01:13:28.199Z,2.00
2017-12-01T01:15:55.710Z,2.02
2017-12-01T01:18:23.240Z,2.04
2017-12-01T01:20:50.731Z,2.04
2017-12-01T01:23:18.222Z,2.03
2017-12-01T01:25:45.743Z,2.03
2017-12-01T01:28:13.272Z,2.03
2017-12-01T01:30:40.764Z,2.08
2017-12-01T01:33:08.301Z,2.08
2017-12-01T01:35:35.791Z,2.03
2017-12-01T01:38:03.287Z,2.11
2017-12-01T01:40:30.820Z,2.06
2017-12-01T01:42:58.318Z,1.97
2017-12-01T01:45:25.882Z,1.87
2017-12-01T01:47:53.426Z,1.77
2017-12-01T01:50:20.918Z,1.74
2017-12-01T01:52:48.411Z,1.77
2017-12-01T01:55:15.935Z,1.75
2017-12-01T01:57:43.421Z,1.75
2017-12-01T02:00:10.921Z,1.75
2017-12-01T02:02:38.450Z,1.77
2017-12-01T02:05:06.014Z,1.73
2017-12-01T02:07:33.501Z,1.74
2017-12-01T02:10:01.035Z,1.75
2017-12-01T02:12:28.538Z,1.73
2017-12-01T02:14:56.039Z,1.64
2017-12-01T02:17:23.561Z,1.62
2017-12-01T02:19:51.056Z,1.60
2017-12-01T02:22:18.556Z,1.62
2017-12-01T02:24:46.072Z,1.63
2017-12-01T02:27:13.670Z,1.62
2017-12-01T02:29:41.163Z,1.65
2017-12-01T02:32:08.704Z,1.66
2017-12-01T02:34:36.242Z,1.69
2017-12-01T02:37:03.740Z,1.73
2017-12-01T02:39:31.268Z,1.73
2017-12-01T02:41:58.751Z,1.79
2017-12-01T02:44:26.275Z,1.81
2017-12-01T02:46:54.672Z,1.84
2017-12-01T02:49:22.166Z,1.85
2017-12-01T02:51:49.670Z,1.81
2017-12-01T02:54:17.328Z,1.78
2017-12-01T02:56:44.825Z,1.75
2017-12-01T02:59:12.347Z,1.72
2017-12-01T03:01:39.888Z,1.75
2017-12-01T03:04:07.376Z,1.79
2017-12-01T03:06:34.883Z,1.84
2017-12-01T03:09:02.420Z,1.89
2017-12-01T03:11:29.920Z,1.91
2017-12-01T03:13:57.415Z,1.90
2017-12-01T03:16:24.949Z,1.90
2017-12-01T03:18:52.443Z,1.90
2017-12-01T03:21:19.941Z,1.85
2017-12-01T03:23:47.476Z,1.81
2017-12-01T03:26:14.972Z,1.81
2017-12-01T03:28:42.463Z,1.83
2017-12-01T03:31:09.988Z,1.86
2017-12-01T03:33:37.578Z,1.87
2017-12-01T03:36:05.065Z,1.89
2017-12-01T03:38:32.675Z,1.87
2017-12-01T03:41:00.167Z,1.88
2017-12-01T03:43:27.682Z,1.87
2017-12-01T03:45:55.218Z,1.88
2017-12-01T03:48:22.711Z,1.89
2017-12-01T03:50:50.200Z,1.89
2017-12-01T03:53:17.745Z,1.87
2017-12-01T03:55:45.236Z,1.88
2017-12-01T03:58:12.732Z,1.89
2017-12-01T04:00:40.281Z,1.90
2017-12-01T04:03:07.782Z,1.88
2017-12-01T04:05:35.268Z,1.92
2017-12-01T04:08:02.806Z,1.93
2017-12-01T04:10:30.287Z,1.88
2017-12-01T04:12:57.771Z,1.88
2017-12-01T04:15:25.399Z,1.89
2017-12-01T04:17:52.884Z,1.90
2017-12-01T04:20:20.385Z,1.95
2017-12-01T04:22:47.930Z,1.98
2017-12-01T04:25:15.429Z,2.01
2017-12-01T04:27:42.919Z,1.97
2017-12-01T04:30:10.459Z,1.99
2017-12-01T04:32:37.951Z,2.04
2017-12-01T04:35:05.468Z,2.06
2017-12-01T04:37:33.005Z,2.07
2017-12-01T04:40:00.496Z,2.05
2017-12-01T04:42:28.006Z,2.04
2017-12-01T04:44:55.550Z,2.05
2017-12-01T04:47:23.041Z,2.00
2017-12-01T04:49:50.529Z,2.01
2017-12-01T04:52:18.064Z,1.99
2017-12-01T04:54:45.566Z,2.03
2017-12-01T04:57:13.071Z,2.11
2017-12-01T04:59:40.587Z,2.15
2017-12-01T05:02:08.082Z,2.18
2017-12-01T05:04:35.572Z,2.07
2017-12-01T05:07:03.084Z,1.94
2017-12-01T05:09:30.604Z,1.83
2017-12-01T05:11:58.195Z,1.75
2017-12-01T05:14:25.683Z,1.73
2017-12-01T05:16:53.215Z,1.80
2017-12-01T05:19:20.756Z,1.82
2017-12-01T05:21:48.350Z,1.88
2017-12-01T05:24:15.902Z,1.91
2017-12-01T05:26:43.443Z,1.90
2017-12-01T05:29:10.936Z,1.92
2017-12-01T05:31:38.430Z,1.87
2017-12-01T05:34:05.957Z,1.80
2017-12-01T05:36:33.489Z,1.72
2017-12-01T05:39:00.980Z,1.70
2017-12-01T05:41:28.512Z,1.66
2017-12-01T05:43:56.012Z,1.65
2017-12-01T05:46:23.508Z,1.62
2017-12-01T05:48:51.035Z,1.59
2017-12-01T05:51:18.545Z,1.57
2017-12-01T05:53:46.040Z,1.51
2017-12-01T05:56:13.662Z,1.49
2017-12-01T05:58:41.159Z,1.47
2017-12-01T06:01:08.651Z,1.47
2017-12-01T06:03:36.190Z,1.44
2017-12-01T06:06:03.692Z,1.46
2017-12-01T06:08:31.233Z,1.51
2017-12-01T06:10:58.776Z,1.53
2017-12-01T06:13:26.266Z,1.54
2017-12-01T06:15:53.755Z,1.54
2017-12-01T06:18:21.375Z,1.54
2017-12-01T06:20:48.940Z,1.55
2017-12-01T06:23:16.434Z,1.54
2017-12-01T06:25:44.051Z,1.55
2017-12-01T06:28:11.687Z,1.51
2017-12-01T06:30:39.179Z,1.49
2017-12-01T06:33:06.806Z,1.48
2017-12-01T06:35:34.290Z,1.48
2017-12-01T06:38:01.827Z,1.49
2017-12-01T06:40:29.625Z,1.49
2017-12-01T06:42:57.171Z,1.49
2017-12-01T06:45:24.755Z,1.51
2017-12-01T06:47:52.284Z,1.54
2017-12-01T06:50:19.771Z,1.55
2017-12-01T06:52:47.256Z,1.53
2017-12-01T06:55:14.784Z,1.52
2017-12-01T06:57:42.275Z,1.52
2017-12-01T07:00:09.770Z,1.54
2017-12-01T07:02:37.456Z,1.53
2017-12-01T07:05:04.950Z,1.52
2017-12-01T07:07:32.446Z,1.52
2017-12-01T07:12:50.960Z,1.51
2017-12-01T07:15:18.435Z,1.49
2017-12-01T07:17:45.930Z,1.47
2017-12-01T07:20:13.443Z,1.46
2017-12-01T07:22:40.927Z,1.47
2017-12-01T07:25:08.422Z,1.47
2017-12-01T07:27:35.946Z,1.49
2017-12-01T07:30:03.487Z,1.50
2017-12-01T07:32:30.969Z,1.51
2017-12-01T07:34:58.450Z,1.52
2017-12-01T07:37:25.984Z,1.53
2017-12-01T07:39:53.491Z,1.55
2017-12-01T07:42:20.976Z,1.63
2017-12-01T07:47:53.851Z,1.81
2017-12-01T07:50:21.491Z,1.88
2017-12-01T07:52:49.002Z,1.96
2017-12-01T07:55:16.496Z,2.09
2017-12-01T07:57:44.028Z,2.17
2017-12-01T08:00:11.532Z,2.22
2017-12-01T08:02:39.020Z,2.28
2017-12-01T08:05:06.532Z,2.29
2017-12-01T08:07:34.007Z,2.34
2017-12-01T08:10:01.542Z,2.47
2017-12-01T08:12:29.060Z,2.55
2017-12-01T08:14:56.553Z,2.57
2017-12-01T08:17:29.813Z,2.59
2017-12-01T08:19:57.298Z,2.64
2017-12-01T08:22:36.800Z,2.71
2017-12-01T08:25:16.144Z,2.70
2017-12-01T08:27:43.669Z,2.73
2017-12-01T08:30:11.157Z,2.58
2017-12-01T08:32:38.643Z,2.56
2017-12-01T08:35:06.155Z,2.58
2017-12-01T08:37:33.652Z,2.61
2017-12-01T08:40:01.184Z,2.62
2017-12-01T08:42:28.670Z,2.65
2017-12-01T08:44:56.159Z,2.67
2017-12-01T08:47:23.707Z,2.72
2017-12-01T08:49:51.286Z,2.76
2017-12-01T08:52:18.779Z,2.79
2017-12-01T08:54:46.313Z,2.82
2017-12-01T08:57:13.848Z,2.84
2017-12-01T08:59:41.514Z,2.88
2017-12-01T09:02:09.057Z,2.88
2017-12-01T09:04:36.548Z,2.91
2017-12-01T09:07:04.040Z,2.94
2017-12-01T09:09:31.567Z,2.99
2017-12-01T09:11:59.104Z,2.99
2017-12-01T09:14:26.598Z,3.01
2017-12-01T09:16:54.121Z,3.03
2017-12-01T09:19:21.676Z,3.05
2017-12-01T09:21:49.177Z,3.08
2017-12-01T09:24:16.702Z,2.99
2017-12-01T09:26:44.196Z,3.03
2017-12-01T09:29:11.685Z,3.09
2017-12-01T09:31:39.215Z,3.12
2017-12-01T09:34:06.703Z,3.15
2017-12-01T09:36:34.195Z,3.23
2017-12-01T09:39:01.717Z,3.29
2017-12-01T09:41:29.225Z,3.25
2017-12-01T09:43:56.724Z,3.20
2017-12-01T09:46:24.252Z,3.18
2017-12-01T09:48:51.748Z,3.18
2017-12-01T09:51:19.244Z,3.21
2017-12-01T09:53:46.827Z,3.25
2017-12-01T09:56:14.356Z,3.31
2017-12-01T09:58:41.856Z,3.29
2017-12-01T10:01:09.383Z,3.27
2017-12-01T10:03:36.880Z,3.24
2017-12-01T10:06:04.388Z,3.14
2017-12-01T10:08:31.961Z,3.18
2017-12-01T10:10:59.451Z,3.19
2017-12-01T10:13:26.983Z,3.18
2017-12-01T10:15:54.516Z,3.15
2017-12-01T10:18:22.079Z,3.12
2017-12-01T10:20:49.570Z,3.12
2017-12-01T10:23:17.107Z,3.10
2017-12-01T10:25:44.601Z,3.25
2017-12-01T10:28:12.103Z,3.38
2017-12-01T10:30:39.623Z,3.47
2017-12-01T10:33:07.150Z,3.54
2017-12-01T10:35:34.640Z,3.59
2017-12-01T10:38:02.154Z,3.56
2017-12-01T10:40:29.708Z,3.63
2017-12-01T10:42:57.204Z,3.55
2017-12-01T10:45:24.719Z,3.55
2017-12-01T10:47:52.286Z,3.57
2017-12-01T10:50:19.787Z,3.52
2017-12-01T10:52:47.271Z,3.56
2017-12-01T10:55:14.791Z,3.51
2017-12-01T10:57:42.279Z,3.53
2017-12-01T11:00:09.772Z,3.61
2017-12-01T11:02:37.287Z,3.68
2017-12-01T11:05:04.778Z,3.69
2017-12-01T11:07:32.274Z,3.66
2017-12-01T11:09:59.822Z,3.57
2017-12-01T11:12:27.315Z,3.59
2017-12-01T11:14:54.818Z,3.56
2017-12-01T11:17:22.356Z,3.65
2017-12-01T11:19:49.844Z,3.74
2017-12-01T11:22:17.332Z,3.83
2017-12-01T11:24:44.887Z,3.84
2017-12-01T11:27:12.383Z,3.84
2017-12-01T11:29:39.893Z,3.93
2017-12-01T11:32:07.413Z,3.93
2017-12-01T11:34:34.906Z,3.94
2017-12-01T11:37:02.442Z,3.93
2017-12-01T11:39:29.935Z,3.93
2017-12-01T11:41:57.440Z,3.92
2017-12-01T11:44:25.019Z,3.94
2017-12-01T11:46:52.557Z,3.94
2017-12-01T11:49:20.053Z,3.99
2017-12-01T11:51:47.543Z,4.02
2017-12-01T11:54:15.076Z,4.02
2017-12-01T11:56:42.571Z,4.09
2017-12-01T11:59:10.056Z,4.12
2017-12-01T12:01:37.636Z,4.11
2017-12-01T12:04:05.096Z,4.14
2017-12-01T12:06:32.592Z,4.14
2017-12-01T12:09:00.107Z,4.13
2017-12-01T12:11:27.644Z,4.07
2017-12-01T12:13:55.219Z,4.03
2017-12-01T12:16:22.711Z,4.02
2017-12-01T12:18:50.239Z,3.97
2017-12-01T12:21:17.732Z,3.89
2017-12-01T12:23:45.247Z,3.87
2017-12-01T12:26:12.809Z,3.86
2017-12-01T12:28:40.372Z,3.89
2017-12-01T12:31:07.868Z,3.88
2017-12-01T12:33:35.488Z,3.93
2017-12-01T12:36:02.980Z,3.95
2017-12-01T12:38:30.476Z,4.00
2017-12-01T12:40:58.059Z,3.94
2017-12-01T12:43:25.554Z,3.93
2017-12-01T12:45:53.043Z,3.90
2017-12-01T12:48:20.575Z,3.88
2017-12-01T12:50:48.100Z,3.89
2017-12-01T12:53:15.603Z,3.90
2017-12-01T12:55:43.149Z,3.91
2017-12-01T12:58:10.651Z,3.94
2017-12-01T13:00:38.143Z,3.94
2017-12-01T13:03:05.667Z,3.92
2017-12-01T13:05:33.159Z,3.94
2017-12-01T13:08:00.658Z,3.94
2017-12-01T13:10:28.180Z,3.96
2017-12-01T13:12:55.663Z,3.97
2017-12-01T13:15:23.150Z,3.93
2017-12-01T13:17:50.692Z,3.97
2017-12-01T13:20:18.196Z,4.00
2017-12-01T13:22:45.688Z,4.04
2017-12-01T13:25:13.223Z,4.02
2017-12-01T13:27:40.712Z,4.01
2017-12-01T13:30:08.233Z,4.08
2017-12-01T13:32:35.739Z,4.04
2017-12-01T13:35:03.228Z,4.06
2017-12-01T13:37:30.748Z,4.08
2017-12-01T13:39:58.279Z,4.09
2017-12-01T13:42:25.771Z,4.09
2017-12-01T13:44:53.290Z,4.04
2017-12-01T13:47:20.813Z,3.99
2017-12-01T13:49:48.399Z,4.02
2017-12-01T13:52:15.916Z,4.03
2017-12-01T13:54:43.450Z,4.10
2017-12-01T13:59:44.700Z,4.06
2017-12-01T14:02:12.324Z,4.06
2017-12-01T14:04:39.811Z,4.03
2017-12-01T14:07:07.424Z,4.02
2017-12-01T14:09:34.925Z,3.99
2017-12-01T14:12:02.418Z,3.97
2017-12-01T14:14:29.948Z,3.96
2017-12-01T14:16:57.436Z,3.93
2017-12-01T14:19:24.920Z,3.92
2017-12-01T14:21:52.525Z,3.95
2017-12-01T14:24:20.020Z,3.94
2017-12-01T14:26:47.514Z,3.95
2017-12-01T14:29:15.098Z,3.96
2017-12-01T14:31:42.584Z,3.90
2017-12-01T14:34:10.138Z,3.83
2017-12-01T14:36:37.639Z,3.82
2017-12-01T14:39:05.215Z,3.81
2017-12-01T14:41:32.704Z,3.83
2017-12-01T14:44:00.246Z,3.80
2017-12-01T14:46:27.772Z,3.75
2017-12-01T14:48:55.263Z,3.69
2017-12-01T14:51:22.778Z,3.70
2017-12-01T14:53:50.275Z,3.69
2017-12-01T14:56:17.805Z,3.71
2017-12-01T14:58:45.293Z,3.72
2017-12-01T15:01:12.839Z,3.62
2017-12-01T15:03:40.405Z,3.56
2017-12-01T15:06:07.959Z,3.59
2017-12-01T15:08:35.504Z,3.64
2017-12-01T15:11:03.005Z,3.66
2017-12-01T15:13:30.508Z,3.65
2017-12-01T15:15:58.024Z,3.66
2017-12-01T15:18:25.575Z,3.67
2017-12-01T15:20:53.120Z,3.66
2017-12-01T15:23:20.611Z,3.63
2017-12-01T15:25:48.324Z,3.58
2017-12-01T15:28:15.891Z,3.58
2017-12-01T15:30:43.451Z,3.59
2017-12-01T15:33:10.980Z,3.60
2017-12-01T15:35:38.478Z,3.63
2017-12-01T15:38:05.968Z,3.63
2017-12-01T15:40:33.485Z,3.60
2017-12-01T15:43:01.010Z,3.62
2017-12-01T15:45:28.495Z,3.65
2017-12-01T15:47:56.275Z,3.66
2017-12-01T15:50:23.808Z,3.63
2017-12-01T15:52:51.287Z,3.63
2017-12-01T15:55:18.791Z,3.62
2017-12-01T15:57:46.307Z,3.64
2017-12-01T16:00:13.822Z,3.66
2017-12-01T16:02:41.316Z,3.69
2017-12-01T16:05:08.806Z,3.71
2017-12-01T16:07:36.339Z,3.68
2017-12-01T16:10:03.838Z,3.70
2017-12-01T16:12:31.328Z,3.68
2017-12-01T16:14:58.851Z,3.67
2017-12-01T16:17:26.365Z,3.71
2017-12-01T16:19:53.865Z,3.72
2017-12-01T16:22:21.497Z,3.72
2017-12-01T16:24:48.987Z,3.73
2017-12-01T16:27:16.483Z,3.74
2017-12-01T16:29:44.023Z,3.72
2017-12-01T16:32:11.513Z,3.72
2017-12-01T16:34:39.022Z,3.77
2017-12-01T16:37:06.567Z,3.76
2017-12-01T16:39:34.063Z,3.77
2017-12-01T16:42:01.627Z,3.76
2017-12-01T16:44:29.326Z,3.78
2017-12-01T16:46:56.821Z,3.78
2017-12-01T16:49:24.307Z,3.77
2017-12-01T16:51:51.831Z,3.77
2017-12-01T16:54:19.322Z,3.75
2017-12-01T16:56:46.805Z,3.73
2017-12-01T16:59:14.335Z,3.68
2017-12-01T17:01:41.821Z,3.67
2017-12-01T17:04:09.377Z,3.69
2017-12-01T17:06:36.915Z,3.68
2017-12-01T17:09:04.419Z,3.73
2017-12-01T17:11:31.911Z,3.72
2017-12-01T17:13:59.564Z,3.74
2017-12-01T17:16:27.046Z,3.73
2017-12-01T17:18:54.618Z,3.69
2017-12-01T17:21:22.112Z,3.69
2017-12-01T17:23:49.605Z,3.62
2017-12-01T17:26:17.209Z,3.58
2017-12-01T17:28:44.766Z,3.54
2017-12-01T17:31:12.262Z,3.53
2017-12-01T17:33:39.780Z,3.45
2017-12-01T17:36:07.278Z,3.35
2017-12-01T17:38:34.763Z,3.40
2017-12-01T17:41:03.039Z,3.41
2017-12-01T17:43:30.533Z,3.40
2017-12-01T17:45:58.107Z,3.36
2017-12-01T17:48:25.636Z,3.35
2017-12-01T17:50:53.122Z,3.28
2017-12-01T17:53:20.618Z,3.27
2017-12-01T17:55:48.160Z,3.25
2017-12-01T17:58:15.654Z,3.22
2017-12-01T18:00:43.148Z,3.22
2017-12-01T18:03:11.543Z,3.20
2017-12-01T18:05:39.054Z,3.16
2017-12-01T18:08:06.548Z,3.08
2017-12-01T18:10:34.104Z,3.08
2017-12-01T18:13:01.594Z,3.09
2017-12-01T18:15:29.083Z,3.13
2017-12-01T18:17:56.608Z,3.13
2017-12-01T18:20:24.192Z,3.11
2017-12-01T18:22:51.691Z,3.08
2017-12-01T18:25:19.236Z,3.14
2017-12-01T18:27:46.731Z,3.07
2017-12-01T18:30:14.232Z,3.02
2017-12-01T18:32:41.775Z,2.97
2017-12-01T18:35:09.254Z,2.92
2017-12-01T18:37:36.745Z,2.93
2017-12-01T18:40:04.257Z,2.96
2017-12-01T18:42:31.958Z,3.01
2017-12-01T18:44:59.510Z,3.02
2017-12-01T18:47:27.003Z,3.00
2017-12-01T18:49:54.541Z,2.98
2017-12-01T18:52:22.028Z,2.94
2017-12-01T18:54:49.524Z,2.89
2017-12-01T18:57:17.074Z,2.94
2017-12-01T18:59:44.583Z,2.96
2017-12-01T19:02:12.075Z,2.99
2017-12-01T19:04:39.590Z,2.98
2017-12-01T19:07:07.075Z,2.97
2017-12-01T19:09:34.568Z,2.94
2017-12-01T19:12:02.113Z,2.91
2017-12-01T19:14:29.601Z,2.87
2017-12-01T19:16:57.186Z,2.85
2017-12-01T19:19:24.701Z,2.87
2017-12-01T19:21:52.259Z,2.90
2017-12-01T19:24:19.854Z,2.91
2017-12-01T19:26:47.408Z,2.93
2017-12-01T19:29:14.964Z,2.93
2017-12-01T19:31:42.450Z,2.95
2017-12-01T19:34:09.940Z,2.97
2017-12-01T19:36:37.541Z,2.97
2017-12-01T19:39:05.102Z,2.94
2017-12-01T19:41:32.594Z,2.93
2017-12-01T19:44:00.128Z,2.92
2017-12-01T19:46:27.617Z,2.90
2017-12-01T19:48:55.154Z,2.95
2017-12-01T19:51:22.713Z,2.96
2017-12-01T19:53:50.253Z,2.94
2017-12-01T19:56:17.748Z,2.96
2017-12-01T19:58:45.280Z,2.93
2017-12-01T20:01:12.779Z,2.96
2017-12-01T20:03:40.265Z,2.95
2017-12-01T20:06:07.796Z,2.92
2017-12-01T20:08:35.286Z,2.91
2017-12-01T20:11:03.403Z,2.94
2017-12-01T20:13:30.958Z,2.94
2017-12-01T20:15:58.492Z,2.98
2017-12-01T20:18:25.984Z,2.98
2017-12-01T20:20:53.515Z,2.94
2017-12-01T20:23:21.044Z,2.94
2017-12-01T20:25:48.535Z,3.02
2017-12-01T20:28:16.041Z,3.05
2017-12-01T20:30:43.559Z,3.02
2017-12-01T20:33:11.117Z,2.99
2017-12-01T20:35:38.608Z,3.00
2017-12-01T20:38:06.139Z,3.01
2017-12-01T20:40:33.629Z,3.09
2017-12-01T20:43:01.144Z,3.11
2017-12-01T20:45:28.678Z,3.13
2017-12-01T20:47:56.175Z,3.09
2017-12-01T20:50:23.665Z,3.03
2017-12-01T20:52:51.258Z,3.00
2017-12-01T20:55:18.759Z,2.97
2017-12-01T20:57:46.304Z,2.95
2017-12-01T21:00:13.935Z,2.98
2017-12-01T21:02:41.510Z,2.95
2017-12-01T21:05:08.999Z,2.97
2017-12-01T21:07:36.533Z,2.96
2017-12-01T21:10:04.032Z,2.91
2017-12-01T21:12:31.542Z,2.90
2017-12-01T21:14:59.095Z,2.89
2017-12-01T21:17:26.683Z,2.90
2017-12-01T21:19:54.184Z,2.98
2017-12-01T21:22:21.742Z,2.99
2017-12-01T21:24:49.234Z,2.93
2017-12-01T21:27:16.797Z,2.88
2017-12-01T21:29:44.322Z,2.87
2017-12-01T21:32:11.864Z,2.84
2017-12-01T21:34:39.358Z,2.89
2017-12-01T21:37:06.918Z,2.92
2017-12-01T21:39:34.444Z,2.96
2017-12-01T21:42:01.960Z,2.97
2017-12-01T21:44:29.450Z,2.97
2017-12-01T21:46:56.999Z,2.96
2017-12-01T21:49:24.487Z,2.98
2017-12-01T21:51:51.978Z,2.99
2017-12-01T21:54:19.499Z,2.99
2017-12-01T21:56:46.993Z,2.98
2017-12-01T21:59:14.503Z,2.95
2017-12-01T22:01:42.125Z,2.97
2017-12-01T22:04:09.683Z,2.99
2017-12-01T22:06:37.180Z,2.98
2017-12-01T22:09:04.687Z,2.97
2017-12-01T22:11:32.212Z,3.04
2017-12-01T22:13:59.690Z,3.07
2017-12-01T22:16:27.177Z,3.09
2017-12-01T22:18:54.704Z,3.07
2017-12-01T22:21:22.197Z,3.10
2017-12-01T22:23:49.754Z,3.09
2017-12-01T22:26:17.279Z,3.07
2017-12-01T22:28:44.766Z,3.05
2017-12-01T22:31:12.254Z,3.04
2017-12-01T22:33:39.800Z,3.06
2017-12-01T22:36:07.296Z,3.03
2017-12-01T22:38:34.788Z,3.03
2017-12-01T22:41:03.177Z,3.07
2017-12-01T22:43:30.680Z,3.12
2017-12-01T22:45:58.168Z,3.17
2017-12-01T22:48:25.704Z,3.19
2017-12-01T22:50:53.206Z,3.23
2017-12-01T22:53:20.714Z,3.20
2017-12-01T22:55:48.243Z,3.19
2017-12-01T22:58:15.746Z,3.17
2017-12-01T23:00:43.326Z,3.15
2017-12-01T23:03:10.885Z,3.15
2017-12-01T23:05:38.370Z,3.15
2017-12-01T23:08:05.895Z,3.14
2017-12-01T23:10:33.389Z,3.12
2017-12-01T23:13:00.891Z,3.12
2017-12-01T23:15:28.471Z,3.15
2017-12-01T23:17:56.003Z,3.15
2017-12-01T23:20:23.602Z,3.22
2017-12-01T23:22:51.094Z,3.17
2017-12-01T23:25:18.624Z,3.16
2017-12-01T23:27:46.115Z,3.12
2017-12-01T23:30:13.600Z,3.09
2017-12-01T23:32:41.236Z,3.12
2017-12-01T23:35:08.747Z,3.16
2017-12-01T23:37:36.238Z,3.13
2017-12-01T23:40:03.768Z,3.15
2017-12-01T23:42:31.258Z,3.17
2017-12-01T23:44:58.746Z,3.15
2017-12-01T23:47:26.278Z,3.20
2017-12-01T23:49:53.795Z,3.20
2017-12-01T23:52:21.293Z,3.16
2017-12-01T23:54:48.819Z,3.16
2017-12-01T23:57:16.312Z,3.17
2017-12-01T23:59:43.818Z,3.16
